Time;durP1;ratioP1;P1;durP2;ratioP2;P2;SDS_P1;SDS_P2;PMS_P1;PMS_P2;Temp;Humidity;BMP_temperature;BMP_pressure;BME280_temperature;BME280_humidity;BME280_pressure;Samples;Min_cycle;Max_cycle;Signal;HPM_P1;HPM_P2
2021/08/25 00:04:52;;;;;;;27.32;16.27;;;;;;;11.50;100.00;99650.91;4128304;84;21041;-82
2021/08/25 00:10:53;;;;;;;24.05;14.63;;;;;;;11.37;100.00;99645.41;4137745;84;21528;-82
2021/08/25 00:16:54;;;;;;;25.95;14.70;;;;;;;11.36;100.00;99631.46;4120329;84;21128;-82
2021/08/25 00:22:55;;;;;;;32.95;15.13;;;;;;;11.34;100.00;99635.17;4242772;82;20983;-82
2021/08/25 00:28:57;;;;;;;23.98;15.03;;;;;;;11.28;100.00;99631.92;4154224;84;21566;-83
2021/08/25 00:34:58;;;;;;;21.90;12.95;;;;;;;11.23;100.00;99628.10;4151619;84;21149;-83
2021/08/25 00:40:59;;;;;;;21.40;11.97;;;;;;;11.18;100.00;99622.14;4131676;84;21078;-83
2021/08/25 00:47:00;;;;;;;23.12;12.90;;;;;;;11.18;100.00;99612.55;4112142;84;21020;-83
2021/08/25 00:53:03;;;;;;;27.27;13.62;;;;;;;11.07;100.00;99603.54;4138578;84;21064;-83
2021/08/25 00:59:06;;;;;;;17.62;11.63;;;;;;;11.27;100.00;99597.45;4111684;84;21554;-83
2021/08/25 01:05:09;;;;;;;17.30;10.23;;;;;;;11.43;100.00;99600.08;4131480;84;21030;-82
2021/08/25 01:11:11;;;;;;;15.45;9.60;;;;;;;11.49;100.00;99597.23;4075996;86;21094;-82
2021/08/25 01:17:13;;;;;;;14.90;9.48;;;;;;;11.55;100.00;99595.20;4263716;82;21015;-83
2021/08/25 01:23:20;;;;;;;18.62;11.28;;;;;;;11.57;100.00;99585.23;4139902;84;21579;-83
2021/08/25 01:29:30;;;;;;;15.05;9.13;;;;;;;11.62;100.00;99577.48;4144922;84;21066;-83
2021/08/25 01:35:38;;;;;;;22.27;10.20;;;;;;;11.60;100.00;99568.84;4130464;84;21102;-83
2021/08/25 01:41:39;;;;;;;13.98;10.32;;;;;;;11.64;100.00;99575.77;4139545;84;21404;-83
2021/08/25 01:47:40;;;;;;;15.03;10.20;;;;;;;11.62;100.00;99574.73;4121603;84;21678;-82
2021/08/25 01:53:41;;;;;;;17.55;11.95;;;;;;;11.59;100.00;99576.07;4125453;84;21110;-83
2021/08/25 01:59:43;;;;;;;18.20;12.43;;;;;;;11.06;100.00;99577.88;4110811;84;21011;-83
2021/08/25 02:05:44;;;;;;;23.80;13.95;;;;;;;10.86;100.00;99576.33;4136960;84;21098;-83
2021/08/25 02:11:47;;;;;;;24.65;14.83;;;;;;;10.87;100.00;99572.43;4118872;84;21570;-83
2021/08/25 02:17:48;;;;;;;32.53;16.37;;;;;;;10.72;100.00;99570.58;4109050;84;21043;-84
2021/08/25 02:23:49;;;;;;;25.27;15.05;;;;;;;10.49;100.00;99571.88;4150304;84;21113;-83
2021/08/25 02:29:55;;;;;;;22.95;14.35;;;;;;;10.46;100.00;99558.14;4076039;85;21053;-83
2021/08/25 02:35:54;;;;;;;24.02;13.90;;;;;;;10.50;100.00;99556.25;4078172;85;21476;-82
2021/08/25 02:41:55;;;;;;;17.35;10.95;;;;;;;10.50;100.00;99552.15;4134390;83;21117;-83
2021/08/25 02:47:56;;;;;;;21.12;11.80;;;;;;;10.40;100.00;99554.08;4128185;84;21054;-83
2021/08/25 02:53:57;;;;;;;15.63;10.72;;;;;;;10.58;100.00;99548.41;4123806;84;21480;-83
2021/08/25 02:59:58;;;;;;;22.00;12.20;;;;;;;10.55;100.00;99540.34;4147712;84;21077;-82
2021/08/25 03:06:00;;;;;;;21.35;13.88;;;;;;;10.56;100.00;99536.45;4144689;84;21028;-83
2021/08/25 03:12:01;;;;;;;18.90;11.95;;;;;;;10.54;100.00;99531.13;4137579;84;21063;-82
2021/08/25 03:18:02;;;;;;;22.45;12.00;;;;;;;10.42;100.00;99538.91;4133225;84;21082;-83
2021/08/25 03:24:04;;;;;;;17.07;11.20;;;;;;;10.45;100.00;99542.85;4134185;84;21180;-82
2021/08/25 03:30:07;;;;;;;10.35;6.87;;;;;;;10.38;100.00;99542.13;4136506;83;21051;-82
2021/08/25 03:36:08;;;;;;;8.38;5.53;;;;;;;10.33;100.00;99550.65;4137353;84;21390;-84
2021/08/25 03:42:10;;;;;;;8.25;5.20;;;;;;;10.10;100.00;99553.84;4113322;84;21025;-82
2021/08/25 03:48:11;;;;;;;9.23;5.45;;;;;;;9.81;100.00;99548.88;4131454;84;21600;-83
2021/08/25 03:54:12;;;;;;;7.12;4.87;;;;;;;9.78;100.00;99545.49;4088118;85;21062;-82
2021/08/25 04:00:15;;;;;;;8.03;5.15;;;;;;;9.88;100.00;99536.72;4174178;83;31451;-83
2021/08/25 04:06:16;;;;;;;11.10;5.75;;;;;;;9.92;100.00;99540.91;4145873;83;21087;-82
2021/08/25 04:12:17;;;;;;;7.37;4.85;;;;;;;10.10;100.00;99540.77;4157095;84;21022;-82
2021/08/25 04:18:19;;;;;;;8.43;4.85;;;;;;;10.25;100.00;99537.97;4277561;81;21030;-82
2021/08/25 04:24:20;;;;;;;7.60;4.87;;;;;;;10.39;100.00;99533.35;4274888;81;21061;-82
2021/08/25 04:30:21;;;;;;;9.55;4.55;;;;;;;10.43;100.00;99528.16;4281568;81;21018;-82
2021/08/25 04:36:23;;;;;;;11.33;4.05;;;;;;;10.56;100.00;99524.12;4263072;81;21066;-83
2021/08/25 04:42:24;;;;;;;11.83;4.83;;;;;;;10.71;100.00;99521.86;4118674;84;21159;-83
2021/08/25 04:48:25;;;;;;;10.93;5.30;;;;;;;10.79;100.00;99521.44;4142502;83;21104;-82
2021/08/25 04:54:26;;;;;;;8.83;5.22;;;;;;;10.88;100.00;99510.44;4143018;83;21070;-82
2021/08/25 05:00:27;;;;;;;11.00;5.90;;;;;;;10.99;100.00;99511.42;4069691;84;21058;-83
2021/08/25 05:06:29;;;;;;;13.03;7.92;;;;;;;11.06;100.00;99512.13;4125695;83;21454;-82
2021/08/25 05:12:30;;;;;;;12.40;6.58;;;;;;;11.13;100.00;99509.52;4142105;83;21043;-83
2021/08/25 05:18:31;;;;;;;9.05;5.97;;;;;;;11.24;100.00;99505.01;4265434;81;21069;-82
2021/08/25 05:24:33;;;;;;;9.68;5.47;;;;;;;11.31;100.00;99498.86;4279254;81;21606;-83
2021/08/25 05:30:34;;;;;;;10.20;6.58;;;;;;;11.46;100.00;99497.34;4160990;83;21085;-82
2021/08/25 05:36:36;;;;;;;11.25;6.10;;;;;;;11.57;100.00;99496.92;4155609;83;21121;-82
2021/08/25 05:42:38;;;;;;;11.35;6.62;;;;;;;11.63;100.00;99502.33;4157767;83;21092;-82
2021/08/25 05:48:39;;;;;;;10.85;6.10;;;;;;;11.75;100.00;99493.08;4117098;83;21070;-82
2021/08/25 05:54:40;;;;;;;14.33;7.22;;;;;;;11.82;100.00;99489.08;4114001;84;21074;-82
2021/08/25 06:00:41;;;;;;;20.40;9.95;;;;;;;11.99;100.00;99487.15;4161232;83;21137;-84
2021/08/25 06:06:42;;;;;;;13.68;8.25;;;;;;;11.94;99.94;99491.02;4250363;81;21101;-83
2021/08/25 06:12:43;;;;;;;16.10;6.78;;;;;;;12.11;100.00;99500.05;4276259;81;21028;-83
2021/08/25 06:18:44;;;;;;;15.75;7.62;;;;;;;12.10;99.81;99498.48;4284170;81;21050;-83
2021/08/25 06:24:45;;;;;;;14.53;6.95;;;;;;;12.22;99.95;99505.09;4286398;81;21709;-83
2021/08/25 06:30:47;;;;;;;12.05;6.17;;;;;;;12.26;100.00;99510.03;4272989;81;21418;-84
2021/08/25 06:36:48;;;;;;;11.78;6.58;;;;;;;12.39;99.87;99504.52;4275040;81;21812;-83
2021/08/25 06:42:49;;;;;;;12.58;7.03;;;;;;;12.54;100.00;99503.50;4273889;81;20999;-82
2021/08/25 06:48:51;;;;;;;12.37;7.45;;;;;;;12.86;100.00;99505.83;4268417;81;21107;-83
2021/08/25 06:54:52;;;;;;;11.57;7.05;;;;;;;13.18;99.79;99495.36;4254595;81;21670;-84
2021/08/25 07:00:56;;;;;;;16.00;8.38;;;;;;;13.28;99.05;99493.87;4256475;81;21665;-83
2021/08/25 07:06:57;;;;;;;12.70;6.72;;;;;;;13.46;98.21;99493.41;4275074;81;21045;-83
2021/08/25 07:12:58;;;;;;;18.10;7.50;;;;;;;13.51;97.91;99481.48;4228757;81;21452;-82
2021/08/25 07:19:03;;;;;;;13.35;6.78;;;;;;;13.66;97.46;99482.34;4269240;81;21097;-82
2021/08/25 07:25:07;;;;;;;16.10;7.80;;;;;;;13.79;96.99;99481.66;4278934;81;21014;-82
2021/08/25 07:31:08;;;;;;;13.85;6.65;;;;;;;13.69;94.80;99479.62;4278961;81;21530;-83
2021/08/25 07:37:09;;;;;;;16.27;6.92;;;;;;;13.83;96.11;99473.41;4268198;81;21613;-83
2021/08/25 07:43:10;;;;;;;12.98;5.60;;;;;;;13.93;95.94;99470.73;4285206;81;21099;-83
2021/08/25 07:49:13;;;;;;;12.65;6.50;;;;;;;14.01;95.90;99472.92;4285751;81;20994;-83
2021/08/25 07:55:15;;;;;;;10.13;6.08;;;;;;;13.97;95.14;99466.02;4283289;81;21053;-82
2021/08/25 08:01:16;;;;;;;13.88;6.33;;;;;;;13.97;94.79;99465.22;4254836;81;21021;-84
2021/08/25 08:07:18;;;;;;;10.28;6.35;;;;;;;14.40;93.77;99454.63;4274393;81;21549;-82
2021/08/25 08:13:19;;;;;;;10.38;5.85;;;;;;;14.85;91.94;99449.80;4282470;81;21645;-84
2021/08/25 08:19:23;;;;;;;9.90;5.40;;;;;;;15.15;92.57;99444.70;4270637;81;21610;-83
2021/08/25 08:25:33;;;;;;;11.95;6.15;;;;;;;15.02;91.41;99439.95;4299861;79;28253;-84
2021/08/25 08:31:34;;;;;;;9.48;5.25;;;;;;;14.78;90.74;99436.02;4132647;84;22107;-84
2021/08/25 08:37:36;;;;;;;14.25;7.67;;;;;;;14.85;91.53;99418.67;4174457;82;21109;-84
2021/08/25 08:43:46;;;;;;;16.70;7.95;;;;;;;14.65;91.05;99420.23;4171701;84;21059;-84
2021/08/25 08:49:47;;;;;;;9.75;6.20;;;;;;;14.99;91.60;99413.17;4165524;84;21574;-84
2021/08/25 08:55:50;;;;;;;10.10;5.70;;;;;;;15.41;90.49;99402.92;4169602;84;21077;-84
2021/08/25 09:01:51;;;;;;;13.68;6.40;;;;;;;15.78;89.78;99394.75;4169141;84;21078;-84
2021/08/25 09:08:00;;;;;;;9.38;5.80;;;;;;;16.02;87.99;99392.50;4168341;84;21049;-84
2021/08/25 09:14:10;;;;;;;10.90;5.67;;;;;;;16.29;87.57;99386.03;4164744;84;20989;-84
2021/08/25 09:20:12;;;;;;;10.93;5.87;;;;;;;16.30;86.75;99377.92;4167200;84;21637;-84
2021/08/25 09:26:13;;;;;;;10.72;5.80;;;;;;;16.10;86.05;99374.09;4164490;84;21054;-83
2021/08/25 09:32:21;;;;;;;12.33;5.70;;;;;;;15.90;85.56;99366.69;4166601;84;21525;-84
2021/08/25 09:38:24;;;;;;;11.45;5.95;;;;;;;15.94;85.02;99357.23;4166996;84;21032;-84
2021/08/25 09:44:26;;;;;;;9.43;6.10;;;;;;;17.14;84.73;99355.22;4167241;84;21081;-84
2021/08/25 09:50:27;;;;;;;9.05;6.15;;;;;;;17.63;81.46;99351.77;4166243;84;21576;-81
2021/08/25 09:56:35;;;;;;;11.85;5.37;;;;;;;17.34;81.57;99350.48;4166122;84;21033;-82
2021/08/25 10:02:36;;;;;;;11.08;5.53;;;;;;;16.98;80.77;99344.48;4171659;84;21568;-81
2021/08/25 10:08:38;;;;;;;11.03;6.08;;;;;;;16.85;81.25;99327.61;4169772;84;21036;-82
2021/08/25 10:14:40;;;;;;;11.63;5.97;;;;;;;16.62;80.28;99329.39;4167319;84;21066;-82
2021/08/25 10:20:41;;;;;;;17.20;6.65;;;;;;;17.81;80.92;99320.48;4095146;85;21075;-81
2021/08/25 10:27:03;;;;;;;19.87;7.45;;;;;;;18.71;76.02;99316.99;4101447;85;21104;-82
2021/08/25 10:33:08;;;;;;;11.43;6.03;;;;;;;19.39;73.49;99311.84;4095903;85;21577;-82
2021/08/25 10:39:35;;;;;;;10.75;6.10;;;;;;;19.27;74.16;99306.91;4102305;86;21049;-83
2021/08/25 10:45:48;;;;;;;10.18;5.62;;;;;;;18.56;73.46;99299.63;4130949;85;21037;-82
2021/08/25 10:51:49;;;;;;;13.10;6.05;;;;;;;18.10;73.78;99298.91;4123629;85;21112;-82
2021/08/25 10:57:50;;;;;;;12.03;5.75;;;;;;;17.73;73.25;99301.03;4145478;84;21772;-82
2021/08/25 11:03:56;;;;;;;9.75;5.92;;;;;;;18.02;69.86;99278.66;4144575;84;21522;-81
2021/08/25 11:09:57;;;;;;;9.28;6.53;;;;;;;19.23;71.80;99264.53;4143614;84;21088;-83
2021/08/25 11:15:59;;;;;;;8.98;5.80;;;;;;;19.98;70.94;99250.08;4145777;84;21037;-82
2021/08/25 11:22:01;;;;;;;10.93;5.92;;;;;;;20.16;68.32;99250.50;4145864;84;21132;-81
2021/08/25 11:28:03;;;;;;;9.38;6.00;;;;;;;20.30;66.23;99239.64;4129595;84;21704;-82
2021/08/25 11:34:05;;;;;;;13.80;6.50;;;;;;;20.13;66.83;99238.04;4126745;85;21050;-82
2021/08/25 11:40:08;;;;;;;9.30;6.35;;;;;;;19.66;66.95;99231.17;4131546;85;21032;-82
2021/08/25 11:46:09;;;;;;;11.90;7.60;;;;;;;19.35;66.22;99234.81;4122932;85;21073;-83
2021/08/25 11:52:13;;;;;;;11.70;6.62;;;;;;;19.20;65.68;99225.78;4137534;85;21026;-83
2021/08/25 11:58:27;;;;;;;10.35;6.62;;;;;;;19.29;65.48;99226.02;4127263;85;21084;-81
2021/08/25 12:04:28;;;;;;;14.73;8.55;;;;;;;19.17;60.15;99205.81;4128965;85;21046;-82
2021/08/25 12:10:31;;;;;;;14.05;8.63;;;;;;;18.63;61.63;99210.20;4125040;85;21088;-82
2021/08/25 12:16:32;;;;;;;13.45;8.30;;;;;;;18.30;62.12;99198.67;4121586;85;21097;-82
2021/08/25 12:22:33;;;;;;;14.95;9.33;;;;;;;18.13;62.49;99187.87;4137579;84;21084;-82
2021/08/25 12:28:41;;;;;;;12.85;9.18;;;;;;;18.25;62.10;99177.56;4147247;84;21059;-81
2021/08/25 12:35:00;;;;;;;14.53;9.10;;;;;;;18.25;61.35;99172.82;4146272;84;21075;-82
2021/08/25 12:41:02;;;;;;;15.98;9.83;;;;;;;18.24;61.29;99173.23;4148988;84;22636;-81
2021/08/25 12:47:05;;;;;;;19.25;10.28;;;;;;;18.00;61.07;99167.49;4159416;84;21056;-81
2021/08/25 12:53:06;;;;;;;14.87;9.08;;;;;;;17.76;60.50;99163.14;4152982;84;21115;-82
2021/08/25 12:59:08;;;;;;;18.17;10.80;;;;;;;17.49;60.84;99156.21;4145090;84;21059;-82
2021/08/25 13:05:13;;;;;;;16.65;10.10;;;;;;;17.50;61.01;99156.98;4144164;84;21056;-82
2021/08/25 13:11:14;;;;;;;14.75;10.00;;;;;;;17.32;61.17;99151.65;4156971;84;21064;-84
2021/08/25 13:17:15;;;;;;;14.05;10.18;;;;;;;17.17;60.49;99136.45;4146979;84;21029;-82
2021/08/25 13:23:17;;;;;;;17.80;10.08;;;;;;;17.04;60.58;99124.36;4128144;84;21049;-84
2021/08/25 13:29:19;;;;;;;15.38;9.78;;;;;;;17.05;61.26;99123.95;4104105;85;21043;-83
2021/08/25 13:35:22;;;;;;;14.03;9.78;;;;;;;17.02;61.02;99117.86;4103613;85;21048;-82
2021/08/25 13:41:23;;;;;;;15.75;10.28;;;;;;;17.18;61.61;99100.66;4098854;85;21055;-83
2021/08/25 13:47:24;;;;;;;18.05;10.93;;;;;;;17.23;61.04;99092.70;4098683;85;21051;-83
2021/08/25 13:53:26;;;;;;;17.73;10.93;;;;;;;17.11;61.53;99081.41;4100397;85;21035;-84
2021/08/25 13:59:27;;;;;;;18.62;10.55;;;;;;;17.09;61.27;99079.06;4094428;85;21083;-83
2021/08/25 14:05:29;;;;;;;17.70;11.48;;;;;;;17.07;61.94;99070.98;4099405;85;21074;-83
2021/08/25 14:11:30;;;;;;;16.62;10.18;;;;;;;17.35;62.75;99062.89;4090762;84;21092;-82
2021/08/25 14:17:31;;;;;;;17.55;10.50;;;;;;;17.57;62.25;99064.93;4101714;85;21049;-81
2021/08/25 14:23:32;;;;;;;18.85;10.82;;;;;;;17.51;61.76;99056.16;4088863;85;21078;-83
2021/08/25 14:29:33;;;;;;;16.67;10.08;;;;;;;17.50;62.14;99053.98;4059565;86;21045;-84
2021/08/25 14:35:35;;;;;;;19.62;9.68;;;;;;;17.46;62.09;99046.95;4051403;86;21076;-84
2021/08/25 14:41:36;;;;;;;18.42;9.08;;;;;;;17.46;61.63;99035.25;4056248;86;21091;-84
2021/08/25 14:47:37;;;;;;;15.15;9.50;;;;;;;17.43;60.22;99024.99;4057871;86;21025;-83
2021/08/25 14:53:38;;;;;;;17.17;9.15;;;;;;;17.46;61.20;99017.27;4048870;86;21051;-82
2021/08/25 14:59:39;;;;;;;15.90;9.60;;;;;;;17.42;61.49;99008.22;4046583;86;21074;-83
2021/08/25 15:05:40;;;;;;;15.13;9.60;;;;;;;17.34;61.78;99005.38;4050813;86;21050;-83
2021/08/25 15:11:42;;;;;;;18.60;10.58;;;;;;;17.23;61.83;98992.31;4048985;86;21498;-84
2021/08/25 15:17:46;;;;;;;16.73;10.20;;;;;;;17.08;62.54;98988.21;4037043;86;22209;-83
2021/08/25 15:23:49;;;;;;;15.50;10.30;;;;;;;16.97;63.06;98988.97;4066511;85;21039;-83
2021/08/25 15:29:50;;;;;;;15.35;9.53;;;;;;;16.83;62.75;98987.20;4102094;85;22146;-84
2021/08/25 15:35:52;;;;;;;14.25;9.30;;;;;;;16.75;63.60;98973.88;4108422;85;21070;-84
2021/08/25 15:41:53;;;;;;;19.80;8.98;;;;;;;16.66;63.86;98971.61;4099315;85;21393;-83
2021/08/25 15:47:54;;;;;;;15.00;8.43;;;;;;;16.57;63.13;98959.53;4108847;85;21149;-84
2021/08/25 15:53:56;;;;;;;14.85;8.63;;;;;;;16.54;63.23;98959.75;4097866;85;21541;-84
2021/08/25 15:59:57;;;;;;;16.90;9.45;;;;;;;16.41;63.23;98958.69;4097170;85;21039;-84
2021/08/25 16:05:59;;;;;;;12.85;8.35;;;;;;;16.31;62.97;98949.96;4099093;85;20999;-83
2021/08/25 16:12:00;;;;;;;15.48;9.40;;;;;;;16.28;63.07;98938.36;4101036;85;21019;-84
2021/08/25 16:18:02;;;;;;;16.30;9.38;;;;;;;16.20;64.09;98938.27;4100689;85;21030;-84
2021/08/25 16:24:04;;;;;;;13.85;9.15;;;;;;;16.10;64.01;98934.25;4097253;85;21061;-83
2021/08/25 16:30:07;;;;;;;14.03;9.35;;;;;;;15.93;64.50;98934.63;4102428;85;21068;-84
2021/08/25 16:36:08;;;;;;;18.50;9.80;;;;;;;15.82;65.42;98920.16;4099627;85;21046;-83
2021/08/25 16:42:10;;;;;;;16.10;8.50;;;;;;;15.79;65.49;98913.30;3993522;85;42880;-84
2021/08/25 16:48:11;;;;;;;17.62;9.88;;;;;;;15.73;65.67;98899.77;3976772;87;21521;-83
2021/08/25 16:54:12;;;;;;;17.15;10.35;;;;;;;15.70;66.13;98893.09;3976997;88;21121;-83
2021/08/25 17:00:14;;;;;;;19.60;9.38;;;;;;;15.64;66.08;98893.37;3974978;88;21097;-83
2021/08/25 17:06:16;;;;;;;20.23;10.08;;;;;;;15.49;66.62;98887.80;3977057;88;21482;-84
2021/08/25 17:12:17;;;;;;;16.60;9.80;;;;;;;15.45;66.93;98882.92;3976569;88;21061;-83
2021/08/25 17:18:19;;;;;;;16.60;9.40;;;;;;;15.37;67.06;98879.43;4025828;87;21058;-83
2021/08/25 17:24:21;;;;;;;18.40;10.40;;;;;;;15.23;67.32;98878.19;4029989;86;21142;-83
2021/08/25 17:30:23;;;;;;;16.85;9.90;;;;;;;15.08;68.20;98880.10;4062437;86;21050;-83
2021/08/25 17:36:25;;;;;;;16.93;10.30;;;;;;;14.93;69.20;98871.16;4055979;86;21035;-83
2021/08/25 17:42:26;;;;;;;20.92;11.43;;;;;;;14.69;69.38;98866.62;4047285;86;21468;-83
2021/08/25 17:48:27;;;;;;;18.95;11.08;;;;;;;14.50;69.94;98863.01;4054437;86;21076;-83
2021/08/25 17:54:29;;;;;;;18.73;11.88;;;;;;;14.30;70.60;98865.33;4056952;86;21093;-83
2021/08/25 18:00:30;;;;;;;17.00;11.12;;;;;;;14.19;71.19;98858.45;4063952;86;21019;-83
2021/08/25 18:06:32;;;;;;;19.82;11.57;;;;;;;14.06;71.70;98862.87;3957406;88;21025;-83
2021/08/25 18:12:33;;;;;;;27.85;11.43;;;;;;;13.90;72.01;98862.54;3965876;87;21074;-82
2021/08/25 18:18:34;;;;;;;20.95;11.03;;;;;;;13.71;72.48;98861.05;3966355;89;21075;-84
2021/08/25 18:24:35;;;;;;;18.00;10.93;;;;;;;13.57;73.08;98851.47;3974888;88;21091;-83
2021/08/25 18:30:37;;;;;;;17.65;10.72;;;;;;;13.39;73.18;98843.08;3980970;88;20991;-83
2021/08/25 18:36:38;;;;;;;20.88;10.60;;;;;;;13.22;73.54;98848.00;3936223;89;21072;-83
2021/08/25 18:42:39;;;;;;;18.30;9.58;;;;;;;13.11;73.95;98849.40;3930519;89;22245;-83
2021/08/25 18:48:41;;;;;;;22.37;9.80;;;;;;;13.00;73.67;98844.50;3987215;88;21041;-83
2021/08/25 18:54:42;;;;;;;16.90;9.78;;;;;;;12.93;74.30;98841.75;3972218;88;21131;-83
2021/08/25 19:00:44;;;;;;;16.82;10.28;;;;;;;12.89;75.04;98833.31;3983244;88;21198;-83
2021/08/25 19:06:46;;;;;;;15.68;9.13;;;;;;;12.85;75.31;98833.89;3970601;85;36038;-82
2021/08/25 19:12:48;;;;;;;19.92;11.12;;;;;;;12.80;75.88;98828.78;3964958;88;21259;-84
2021/08/25 19:18:49;;;;;;;20.48;10.08;;;;;;;12.80;76.20;98820.55;3963082;88;21105;-84
2021/08/25 19:24:51;;;;;;;20.90;11.22;;;;;;;12.75;76.71;98816.84;3962720;88;21558;-83
2021/08/25 19:30:52;;;;;;;19.17;9.65;;;;;;;12.62;76.72;98813.09;3937123;89;21066;-82
2021/08/25 19:36:56;;;;;;;21.07;10.32;;;;;;;12.50;77.40;98809.95;3939312;89;21623;-82
2021/08/25 19:42:57;;;;;;;19.20;10.58;;;;;;;12.49;77.73;98805.65;3937894;89;21492;-82
2021/08/25 19:48:59;;;;;;;20.43;10.68;;;;;;;12.47;77.95;98800.55;3940876;89;21114;-83
2021/08/25 19:55:03;;;;;;;19.20;10.25;;;;;;;12.38;77.99;98791.92;3895208;90;21024;-82
2021/08/25 20:01:04;;;;;;;17.05;10.05;;;;;;;12.25;78.38;98786.61;3995663;87;21110;-84
2021/08/25 20:07:05;;;;;;;19.77;10.15;;;;;;;12.14;78.55;98783.65;3989136;87;21092;-83
2021/08/25 20:13:06;;;;;;;21.27;11.10;;;;;;;12.07;79.14;98783.66;3990673;87;21127;-83
2021/08/25 20:19:08;;;;;;;16.52;10.45;;;;;;;12.04;79.05;98775.59;3990708;87;21019;-83
2021/08/25 20:25:10;;;;;;;20.17;11.45;;;;;;;11.95;79.12;98775.19;3983833;87;21099;-82
2021/08/25 20:31:11;;;;;;;18.02;10.90;;;;;;;11.85;79.52;98774.60;3988223;88;21507;-83
2021/08/25 20:37:13;;;;;;;22.80;12.03;;;;;;;11.76;79.90;98765.94;3946884;89;21107;-83
2021/08/25 20:43:14;;;;;;;18.98;11.65;;;;;;;11.77;80.46;98750.28;3939211;89;21073;-83
2021/08/25 20:49:15;;;;;;;22.17;11.60;;;;;;;11.67;80.45;98740.84;3935536;89;21981;-83
2021/08/25 20:55:16;;;;;;;19.65;12.05;;;;;;;11.62;80.52;98741.19;3940083;89;21154;-84
2021/08/25 21:01:17;;;;;;;18.27;11.12;;;;;;;11.47;80.69;98728.63;3932505;89;21114;-84
2021/08/25 21:07:19;;;;;;;22.25;12.23;;;;;;;11.39;80.97;98724.28;3933494;89;21137;-84
2021/08/25 21:13:20;;;;;;;22.07;12.85;;;;;;;11.36;81.16;98715.47;3945467;89;21607;-85
2021/08/25 21:19:22;;;;;;;25.75;13.18;;;;;;;11.22;81.32;98704.45;3942624;89;21079;-83
2021/08/25 21:25:23;;;;;;;24.70;13.83;;;;;;;11.27;81.84;98701.92;3921892;89;21993;-83
2021/08/25 21:31:24;;;;;;;21.82;12.43;;;;;;;11.18;82.12;98700.94;3939783;88;21096;-82
2021/08/25 21:37:25;;;;;;;25.60;12.78;;;;;;;11.12;82.70;98694.23;3936921;89;21135;-82
2021/08/25 21:43:27;;;;;;;25.95;14.25;;;;;;;11.04;82.99;98682.47;3939704;89;21143;-83
2021/08/25 21:49:28;;;;;;;23.60;13.85;;;;;;;10.98;83.32;98675.00;3934720;89;21095;-82
2021/08/25 21:55:29;;;;;;;24.20;14.10;;;;;;;10.99;83.27;98680.09;3937791;89;21131;-85
2021/08/25 22:01:40;;;;;;;23.80;14.85;;;;;;;10.97;83.58;98672.06;3940103;89;21138;-82
2021/08/25 22:07:42;;;;;;;24.50;14.55;;;;;;;11.01;83.78;98672.28;3930536;89;21170;-82
2021/08/25 22:13:43;;;;;;;29.70;15.65;;;;;;;11.01;84.00;98659.16;3935012;89;21103;-82
2021/08/25 22:19:44;;;;;;;25.35;15.05;;;;;;;10.89;83.63;98652.66;3933389;89;21070;-82
2021/08/25 22:25:46;;;;;;;24.47;15.10;;;;;;;10.82;83.90;98645.20;3935974;89;21147;-82
2021/08/25 22:31:47;;;;;;;27.25;15.72;;;;;;;10.77;84.28;98634.61;3947921;88;21059;-82
2021/08/25 22:37:48;;;;;;;28.73;16.20;;;;;;;10.74;84.71;98625.03;3865280;90;21061;-82
2021/08/25 22:43:49;;;;;;;22.82;14.68;;;;;;;10.68;84.44;98615.63;3946369;88;21039;-81
2021/08/25 22:49:50;;;;;;;23.05;14.90;;;;;;;10.65;84.77;98604.05;3948515;89;21559;-83
2021/08/25 22:55:51;;;;;;;27.05;15.78;;;;;;;10.63;85.18;98600.33;3953713;89;21119;-82
2021/08/25 23:01:53;;;;;;;23.45;14.93;;;;;;;10.57;85.11;98586.05;3914294;89;21069;-82
2021/08/25 23:07:54;;;;;;;25.85;15.15;;;;;;;10.58;85.54;98585.66;3900963;90;21559;-82
2021/08/25 23:13:56;;;;;;;22.32;14.80;;;;;;;10.52;85.31;98576.83;3845889;91;21035;-84
2021/08/25 23:19:57;;;;;;;25.40;15.35;;;;;;;10.56;85.67;98570.78;3857698;91;21085;-82
2021/08/25 23:25:58;;;;;;;25.48;14.53;;;;;;;10.50;85.43;98565.48;3877261;89;21045;-82
2021/08/25 23:32:00;;;;;;;23.32;14.87;;;;;;;10.36;85.41;98562.10;3946685;89;21621;-82
2021/08/25 23:38:02;;;;;;;20.00;14.03;;;;;;;10.29;85.82;98555.21;3960739;88;21163;-82
2021/08/25 23:44:03;;;;;;;28.42;15.23;;;;;;;10.31;86.12;98552.89;3960215;88;21490;-82
2021/08/25 23:50:06;;;;;;;23.52;14.50;;;;;;;10.25;86.12;98542.11;3960419;88;21571;-85
2021/08/25 23:56:07;;;;;;;24.90;14.45;;;;;;;10.13;86.01;98533.45;3942871;88;21054;-82
